createdAt,value
2018-01-28T00:02:21.863Z,14.23
2018-01-28T00:04:52.065Z,8.30
2018-01-28T00:07:22.958Z,8.80
2018-01-28T00:09:53.178Z,12.70
2018-01-28T00:12:23.399Z,10.37
2018-01-28T00:14:53.586Z,13.60
2018-01-28T00:17:24.621Z,12.23
2018-01-28T00:19:55.292Z,11.37
2018-01-28T00:22:25.187Z,10.83
2018-01-28T00:24:55.162Z,11.57
2018-01-28T00:27:25.204Z,16.97
2018-01-28T00:29:55.914Z,14.17
2018-01-28T00:32:25.969Z,13.20
2018-01-28T00:34:55.949Z,13.63
2018-01-28T00:37:25.951Z,14.70
2018-01-28T00:39:55.925Z,12.23
2018-01-28T00:42:26.028Z,15.90
2018-01-28T00:44:56.960Z,12.30
2018-01-28T00:47:26.983Z,12.60
2018-01-28T00:49:57.640Z,14.17
2018-01-28T00:52:27.715Z,15.57
2018-01-28T00:54:57.826Z,13.50
2018-01-28T00:57:27.789Z,15.90
2018-01-28T00:59:57.747Z,15.97
2018-01-28T01:02:28.309Z,15.70
2018-01-28T01:04:58.238Z,10.87
2018-01-28T01:07:30.533Z,14.07
2018-01-28T01:10:01.128Z,11.63
2018-01-28T01:12:31.840Z,11.43
2018-01-28T01:15:01.944Z,14.93
2018-01-28T01:17:31.834Z,15.23
2018-01-28T01:20:01.853Z,17.87
2018-01-28T01:22:32.569Z,13.23
2018-01-28T01:25:02.472Z,11.20
2018-01-28T01:27:32.434Z,11.60
2018-01-28T01:30:02.213Z,9.57
2018-01-28T01:32:33.104Z,10.73
2018-01-28T01:35:03.048Z,10.77
2018-01-28T01:37:33.213Z,9.47
2018-01-28T01:40:03.161Z,9.53
2018-01-28T01:42:33.078Z,7.93
2018-01-28T01:45:03.230Z,8.57
2018-01-28T01:47:33.046Z,8.77
2018-01-28T01:50:02.944Z,8.13
2018-01-28T01:52:32.831Z,10.47
2018-01-28T01:55:02.771Z,8.47
2018-01-28T01:57:32.619Z,8.07
2018-01-28T02:00:03.363Z,8.97
2018-01-28T02:02:33.375Z,8.17
2018-01-28T02:05:04.479Z,7.93
2018-01-28T02:07:34.604Z,10.53
2018-01-28T02:10:04.901Z,7.47
2018-01-28T02:12:35.408Z,11.07
2018-01-28T02:15:06.391Z,7.67
2018-01-28T02:17:36.509Z,7.97
2018-01-28T02:20:06.656Z,10.20
2018-01-28T02:22:37.409Z,10.00
2018-01-28T02:25:08.532Z,9.60
2018-01-28T02:27:38.823Z,8.90
2018-01-28T02:30:09.085Z,7.67
2018-01-28T02:32:39.985Z,8.10
2018-01-28T02:35:10.218Z,8.67
2018-01-28T02:37:40.486Z,8.53
2018-01-28T02:40:10.756Z,8.77
2018-01-28T02:42:41.151Z,8.63
2018-01-28T02:45:11.400Z,9.40
2018-01-28T02:47:41.777Z,7.77
2018-01-28T02:50:13.173Z,7.83
2018-01-28T02:52:43.535Z,7.63
2018-01-28T02:55:13.758Z,6.80
2018-01-28T02:57:43.847Z,8.97
2018-01-28T03:00:14.016Z,7.87
2018-01-28T03:02:44.299Z,9.97
2018-01-28T03:05:14.614Z,8.10
2018-01-28T03:07:44.872Z,9.63
2018-01-28T03:10:15.100Z,7.77
2018-01-28T03:12:45.406Z,7.47
2018-01-28T03:15:15.705Z,6.90
2018-01-28T03:17:46.233Z,7.03
2018-01-28T03:20:16.671Z,7.63
2018-01-28T03:22:48.189Z,10.57
2018-01-28T03:25:18.992Z,7.60
2018-01-28T03:27:49.298Z,8.27
2018-01-28T03:30:19.540Z,6.93
2018-01-28T03:32:50.506Z,7.37
2018-01-28T03:35:21.685Z,8.40
2018-01-28T03:37:52.080Z,7.13
2018-01-28T03:40:23.206Z,7.73
2018-01-28T03:42:54.324Z,8.20
2018-01-28T03:45:24.636Z,7.87
2018-01-28T03:47:54.857Z,6.87
2018-01-28T03:50:25.079Z,6.53
2018-01-28T03:52:55.355Z,6.70
2018-01-28T03:55:25.985Z,7.07
2018-01-28T03:57:57.168Z,8.70
2018-01-28T04:00:27.560Z,6.53
2018-01-28T04:02:58.778Z,6.93
2018-01-28T04:05:29.088Z,8.23
2018-01-28T04:07:59.321Z,6.50
2018-01-28T04:10:29.640Z,6.73
2018-01-28T04:13:00.025Z,6.20
2018-01-28T04:15:30.310Z,8.07
2018-01-28T04:18:01.581Z,8.70
2018-01-28T04:20:31.827Z,6.00
2018-01-28T04:23:02.180Z,6.57
2018-01-28T04:25:32.417Z,7.07
2018-01-28T04:28:02.518Z,7.23
2018-01-28T04:30:32.602Z,6.40
2018-01-28T04:33:03.894Z,5.77
2018-01-28T04:35:34.496Z,5.70
2018-01-28T04:38:04.604Z,6.80
2018-01-28T04:40:34.858Z,5.73
2018-01-28T04:43:05.164Z,5.47
2018-01-28T04:45:35.390Z,6.97
2018-01-28T04:48:05.709Z,5.47
2018-01-28T04:50:35.857Z,6.23
2018-01-28T04:53:05.979Z,5.70
2018-01-28T04:55:36.289Z,5.80
2018-01-28T04:58:06.934Z,7.23
2018-01-28T05:00:37.673Z,7.97
2018-01-28T05:03:07.762Z,5.50
2018-01-28T05:05:37.850Z,6.10
2018-01-28T05:08:08.929Z,6.20
2018-01-28T05:10:39.053Z,6.23
2018-01-28T05:13:09.608Z,5.73
2018-01-28T05:15:40.187Z,5.37
2018-01-28T05:18:10.404Z,4.80
2018-01-28T05:20:41.564Z,5.13
2018-01-28T05:23:11.912Z,5.30
2018-01-28T05:25:42.202Z,4.67
2018-01-28T05:28:13.137Z,6.40
2018-01-28T05:30:44.771Z,6.20
2018-01-28T05:33:16.276Z,5.23
2018-01-28T05:35:46.407Z,5.70
2018-01-28T05:38:16.533Z,5.77
2018-01-28T05:40:46.906Z,6.33
2018-01-28T05:43:17.987Z,6.10
2018-01-28T05:45:48.155Z,5.83
2018-01-28T05:48:19.174Z,6.67
2018-01-28T05:50:49.352Z,9.27
2018-01-28T05:53:19.647Z,8.70
2018-01-28T05:55:50.711Z,9.87
2018-01-28T05:58:21.176Z,8.80
2018-01-28T06:00:51.328Z,10.47
2018-01-28T06:03:22.065Z,9.33
2018-01-28T06:05:52.651Z,11.50
2018-01-28T06:08:23.154Z,7.70
2018-01-28T06:10:53.443Z,9.60
2018-01-28T06:13:23.746Z,12.73
2018-01-28T06:15:54.217Z,9.50
2018-01-28T06:18:24.891Z,9.23
2018-01-28T06:20:55.071Z,13.10
2018-01-28T06:23:26.274Z,11.13
2018-01-28T06:25:56.543Z,10.17
2018-01-28T06:28:27.114Z,12.13
2018-01-28T06:30:57.581Z,12.57
2018-01-28T06:33:28.006Z,9.90
2018-01-28T06:35:58.270Z,12.67
2018-01-28T06:38:28.856Z,13.60
2018-01-28T06:41:01.126Z,14.50
2018-01-28T06:43:31.396Z,13.73
2018-01-28T06:46:01.673Z,13.00
2018-01-28T06:48:31.968Z,13.10
2018-01-28T06:51:02.305Z,15.47
2018-01-28T06:53:32.739Z,15.37
2018-01-28T06:56:03.253Z,14.10
2018-01-28T06:58:33.990Z,12.90
2018-01-28T07:01:04.550Z,14.57
2018-01-28T07:03:34.715Z,15.37
2018-01-28T07:06:05.232Z,15.33
2018-01-28T07:08:36.501Z,15.60
2018-01-28T07:11:06.683Z,14.23
2018-01-28T07:13:37.392Z,13.43
2018-01-28T07:16:08.222Z,13.60
2018-01-28T07:18:38.512Z,12.97
2018-01-28T07:21:08.768Z,17.60
2018-01-28T07:23:39.253Z,18.90
2018-01-28T07:26:09.396Z,15.57
2018-01-28T07:28:39.636Z,16.00
2018-01-28T07:31:09.999Z,12.77
2018-01-28T07:33:40.941Z,17.73
2018-01-28T07:36:11.939Z,13.80
2018-01-28T07:38:42.109Z,16.93
2018-01-28T07:41:12.455Z,16.97
2018-01-28T07:43:42.765Z,17.27
2018-01-28T07:46:13.745Z,16.47
2018-01-28T07:48:43.835Z,18.50
2018-01-28T07:51:14.952Z,16.80
2018-01-28T07:53:45.525Z,17.40
2018-01-28T07:56:15.680Z,17.30
2018-01-28T07:58:45.964Z,20.27
2018-01-28T08:01:16.287Z,17.60
2018-01-28T08:03:47.190Z,19.13
2018-01-28T08:06:17.493Z,21.83
2018-01-28T08:08:47.945Z,20.70
2018-01-28T08:11:18.444Z,18.97
2018-01-28T08:13:49.077Z,18.67
2018-01-28T08:16:19.620Z,25.47
2018-01-28T08:18:50.101Z,23.20
2018-01-28T08:21:21.234Z,22.57
2018-01-28T08:23:52.285Z,21.37
2018-01-28T08:26:23.458Z,20.67
2018-01-28T08:28:54.016Z,23.70
2018-01-28T08:31:24.418Z,18.97
2018-01-28T08:33:54.525Z,20.30
2018-01-28T08:36:25.524Z,20.50
2018-01-28T08:38:55.484Z,21.23
2018-01-28T08:41:26.003Z,19.77
2018-01-28T08:43:55.970Z,18.03
2018-01-28T08:46:26.085Z,21.70
2018-01-28T08:48:56.301Z,22.70
2018-01-28T08:51:26.686Z,21.97
2018-01-28T08:53:56.691Z,24.73
2018-01-28T08:56:26.765Z,23.70
2018-01-28T08:58:57.206Z,21.37
2018-01-28T09:01:27.109Z,20.23
2018-01-28T09:03:57.117Z,21.23
2018-01-28T09:06:26.947Z,23.43
2018-01-28T09:08:56.738Z,21.33
2018-01-28T09:11:26.714Z,24.80
2018-01-28T09:13:56.641Z,24.07
2018-01-28T09:16:26.548Z,20.97
2018-01-28T09:18:56.545Z,22.97
2018-01-28T09:21:26.350Z,24.60
2018-01-28T09:23:56.301Z,23.03
2018-01-28T09:26:27.145Z,24.50
2018-01-28T09:28:57.973Z,22.37
2018-01-28T09:31:28.854Z,20.07
2018-01-28T09:33:58.729Z,24.53
2018-01-28T09:36:29.578Z,20.50
2018-01-28T09:39:00.305Z,22.93
2018-01-28T09:41:31.182Z,22.47
2018-01-28T09:44:01.115Z,19.33
2018-01-28T09:46:31.942Z,23.23
2018-01-28T09:49:02.180Z,25.43
2018-01-28T09:51:32.418Z,22.63
2018-01-28T09:54:02.955Z,24.50
2018-01-28T09:56:32.958Z,21.83
2018-01-28T09:59:02.993Z,23.23
2018-01-28T10:01:33.150Z,21.10
2018-01-28T10:04:03.129Z,20.70
2018-01-28T10:06:34.021Z,21.77
2018-01-28T10:09:04.110Z,17.73
2018-01-28T10:11:35.109Z,25.30
2018-01-28T10:14:05.046Z,14.70
2018-01-28T10:16:34.953Z,13.63
2018-01-28T10:19:04.853Z,16.93
2018-01-28T10:21:35.013Z,14.80
2018-01-28T10:24:05.859Z,16.03
2018-01-28T10:26:36.048Z,13.63
2018-01-28T10:29:06.068Z,12.40
2018-01-28T10:31:36.684Z,16.77
2018-01-28T10:34:06.725Z,12.53
2018-01-28T10:36:37.454Z,15.03
2018-01-28T10:39:08.134Z,13.50
2018-01-28T10:41:38.040Z,18.40
2018-01-28T10:44:07.893Z,18.37
2018-01-28T10:46:37.923Z,18.00
2018-01-28T10:49:07.757Z,20.63
2018-01-28T10:51:38.474Z,17.60
2018-01-28T10:54:08.464Z,21.30
2018-01-28T10:56:38.543Z,20.90
2018-01-28T10:59:08.437Z,23.30
2018-01-28T11:01:39.168Z,20.53
2018-01-28T11:04:09.840Z,19.20
2018-01-28T11:06:39.708Z,20.27
2018-01-28T11:09:09.612Z,24.37
2018-01-28T11:11:39.509Z,21.50
2018-01-28T11:14:09.916Z,21.77
2018-01-28T11:16:40.316Z,21.30
2018-01-28T11:19:10.353Z,22.57
2018-01-28T11:21:40.205Z,22.13
2018-01-28T11:24:10.080Z,20.63
2018-01-28T11:26:40.112Z,24.63
2018-01-28T11:29:10.220Z,17.50
2018-01-28T11:31:40.060Z,19.60
2018-01-28T11:34:10.033Z,18.97
2018-01-28T11:36:39.859Z,21.27
2018-01-28T11:39:09.876Z,22.13
2018-01-28T11:41:39.793Z,22.97
2018-01-28T11:44:09.800Z,21.33
2018-01-28T11:46:41.362Z,20.37
2018-01-28T11:49:11.237Z,21.23
2018-01-28T11:51:42.064Z,24.03
2018-01-28T11:54:11.958Z,17.93
2018-01-28T11:56:41.866Z,24.70
2018-01-28T11:59:11.712Z,21.40
2018-01-28T12:01:41.628Z,17.90
2018-01-28T12:04:11.541Z,17.67
2018-01-28T12:06:41.473Z,17.93
2018-01-28T12:09:12.082Z,17.43
2018-01-28T12:11:42.164Z,16.53
2018-01-28T12:14:12.174Z,15.93
2018-01-28T12:16:42.152Z,16.07
2018-01-28T12:19:12.769Z,16.57
2018-01-28T12:21:42.681Z,15.47
2018-01-28T12:24:12.730Z,15.80
2018-01-28T12:26:43.397Z,20.87
2018-01-28T12:29:13.338Z,14.87
2018-01-28T12:31:43.574Z,13.70
2018-01-28T12:34:13.744Z,16.37
2018-01-28T12:36:43.661Z,14.80
2018-01-28T12:39:14.309Z,17.97
2018-01-28T12:41:44.244Z,17.23
2018-01-28T12:44:14.079Z,11.47
2018-01-28T12:46:44.065Z,12.90
2018-01-28T12:49:14.655Z,15.40
2018-01-28T12:51:45.262Z,15.00
2018-01-28T12:54:15.843Z,17.57
2018-01-28T12:56:45.665Z,16.17
2018-01-28T12:59:15.662Z,13.70
2018-01-28T13:01:45.505Z,17.70
2018-01-28T13:04:15.494Z,13.30
2018-01-28T13:06:45.434Z,15.00
2018-01-28T13:09:16.374Z,15.43
2018-01-28T13:11:46.394Z,14.97
2018-01-28T13:14:16.344Z,17.27
2018-01-28T13:16:46.321Z,15.03
2018-01-28T13:19:16.257Z,13.77
2018-01-28T13:21:47.168Z,13.67
2018-01-28T13:24:17.339Z,12.73
2018-01-28T13:26:47.337Z,13.80
2018-01-28T13:29:18.153Z,13.67
2018-01-28T13:31:48.589Z,12.90
2018-01-28T13:34:19.459Z,13.07
2018-01-28T13:36:49.498Z,12.07
2018-01-28T13:39:19.959Z,22.97
2018-01-28T13:41:50.566Z,18.77
2018-01-28T13:44:21.069Z,16.80
2018-01-28T13:46:51.608Z,15.90
2018-01-28T13:49:21.609Z,11.90
2018-01-28T13:51:51.566Z,12.30
2018-01-28T13:54:21.545Z,16.03
2018-01-28T13:56:51.430Z,11.93
2018-01-28T13:59:22.149Z,13.33
2018-01-28T14:01:52.206Z,9.93
2018-01-28T14:04:22.460Z,13.37
2018-01-28T14:06:52.534Z,12.77
2018-01-28T14:09:23.208Z,11.17
2018-01-28T14:11:53.411Z,11.20
2018-01-28T14:14:23.527Z,13.03
2018-01-28T14:16:53.374Z,14.63
2018-01-28T14:19:23.550Z,14.00
2018-01-28T14:21:54.073Z,14.97
2018-01-28T14:24:24.848Z,11.53
2018-01-28T14:26:54.997Z,12.17
2018-01-28T14:29:24.902Z,13.53
2018-01-28T14:31:54.822Z,13.03
2018-01-28T14:34:24.708Z,16.30
2018-01-28T14:36:54.740Z,14.20
2018-01-28T14:39:24.706Z,14.77
2018-01-28T14:41:55.312Z,14.97
2018-01-28T14:44:25.542Z,13.43
2018-01-28T14:46:55.696Z,16.90
2018-01-28T14:49:26.475Z,13.30
2018-01-28T14:51:56.473Z,12.57
2018-01-28T14:54:26.627Z,13.43
2018-01-28T14:56:56.634Z,12.60
2018-01-28T14:59:26.779Z,10.90
2018-01-28T15:01:58.268Z,15.67
2018-01-28T15:04:28.242Z,14.67
2018-01-28T15:06:58.921Z,14.00
2018-01-28T15:09:28.936Z,11.13
2018-01-28T15:11:58.812Z,15.80
2018-01-28T15:14:29.912Z,13.27
2018-01-28T15:16:59.860Z,13.77
2018-01-28T15:19:30.001Z,15.17
2018-01-28T15:22:00.173Z,16.37
2018-01-28T15:24:30.939Z,16.93
2018-01-28T15:27:00.845Z,14.20
2018-01-28T15:29:31.318Z,12.93
2018-01-28T15:32:01.673Z,14.60
2018-01-28T15:34:33.121Z,14.00
2018-01-28T15:37:03.811Z,11.43
2018-01-28T15:39:33.964Z,16.17
2018-01-28T15:42:05.282Z,18.03
2018-01-28T15:44:35.263Z,14.13
2018-01-28T15:47:05.353Z,19.30
2018-01-28T15:49:35.260Z,12.23
2018-01-28T15:52:05.155Z,12.50
2018-01-28T15:54:35.458Z,12.67
2018-01-28T15:57:05.314Z,14.17
2018-01-28T15:59:37.983Z,13.30
2018-01-28T16:02:08.586Z,12.97
2018-01-28T16:04:39.226Z,13.23
2018-01-28T16:07:09.875Z,14.60
2018-01-28T16:09:40.694Z,17.47
2018-01-28T16:12:10.870Z,14.63
2018-01-28T16:14:40.889Z,15.03
2018-01-28T16:17:11.588Z,15.70
2018-01-28T16:19:41.825Z,11.23
2018-01-28T16:22:11.752Z,12.47
2018-01-28T16:24:41.788Z,18.47
2018-01-28T16:27:12.634Z,14.27
2018-01-28T16:29:43.490Z,15.30
2018-01-28T16:32:13.839Z,15.80
2018-01-28T16:34:43.717Z,21.73
2018-01-28T16:37:13.880Z,23.63
2018-01-28T16:39:43.750Z,15.03
2018-01-28T16:42:14.187Z,17.90
2018-01-28T16:44:45.162Z,19.33
2018-01-28T16:47:15.165Z,18.87
2018-01-28T16:49:45.051Z,18.93
2018-01-28T16:52:16.224Z,14.70
2018-01-28T16:54:46.401Z,20.40
2018-01-28T16:57:17.409Z,20.53
2018-01-28T16:59:47.316Z,17.13
2018-01-28T17:02:17.304Z,15.90
2018-01-28T17:04:48.156Z,19.20
2018-01-28T17:07:19.099Z,24.83
2018-01-28T17:09:50.238Z,15.23
2018-01-28T17:12:20.961Z,17.77
2018-01-28T17:14:51.067Z,16.80
2018-01-28T17:17:21.049Z,16.37
2018-01-28T17:19:51.057Z,17.23
2018-01-28T17:22:21.205Z,20.63
2018-01-28T17:24:51.624Z,17.97
2018-01-28T17:27:21.571Z,18.73
2018-01-28T17:29:51.964Z,20.13
2018-01-28T17:32:21.985Z,20.13
2018-01-28T17:34:52.448Z,21.00
2018-01-28T17:37:22.408Z,24.13
2018-01-28T17:39:52.507Z,20.77
2018-01-28T17:42:22.456Z,21.67
2018-01-28T17:44:52.387Z,17.70
2018-01-28T17:47:22.555Z,21.27
2018-01-28T17:49:52.748Z,21.17
2018-01-28T17:52:22.545Z,21.30
2018-01-28T17:54:52.352Z,16.60
2018-01-28T17:57:23.358Z,24.23
2018-01-28T17:59:53.194Z,16.20
2018-01-28T18:02:24.070Z,19.93
2018-01-28T18:04:53.956Z,15.77
2018-01-28T18:07:25.770Z,18.60
2018-01-28T18:09:55.629Z,22.13
2018-01-28T18:12:25.554Z,22.73
2018-01-28T18:14:56.515Z,24.17
2018-01-28T18:17:28.381Z,19.80
2018-01-28T18:19:58.412Z,22.80
2018-01-28T18:22:28.346Z,17.50
2018-01-28T18:24:58.655Z,19.17
2018-01-28T18:27:28.582Z,15.50
2018-01-28T18:29:58.678Z,17.37
2018-01-28T18:32:28.507Z,19.70
2018-01-28T18:34:58.630Z,18.43
2018-01-28T18:37:28.439Z,17.90
2018-01-28T18:39:58.350Z,14.60
2018-01-28T18:42:28.258Z,15.60
2018-01-28T18:44:58.063Z,19.00
2018-01-28T18:47:28.332Z,19.27
2018-01-28T18:49:59.166Z,17.23
2018-01-28T18:52:29.368Z,15.13
2018-01-28T18:54:59.386Z,14.13
2018-01-28T18:57:29.272Z,13.67
2018-01-28T18:59:59.094Z,13.33
2018-01-28T19:02:29.106Z,13.60
2018-01-28T19:04:58.963Z,15.17
2018-01-28T19:07:28.898Z,12.80
2018-01-28T19:09:58.890Z,15.60
2018-01-28T19:12:28.828Z,14.77
2018-01-28T19:14:58.700Z,12.63
2018-01-28T19:17:29.414Z,11.93
2018-01-28T19:19:59.688Z,15.37
2018-01-28T19:22:29.701Z,11.63
2018-01-28T19:25:00.985Z,12.87
2018-01-28T19:27:31.183Z,10.67
2018-01-28T19:30:01.189Z,11.07
2018-01-28T19:32:31.214Z,10.20
2018-01-28T19:35:01.240Z,9.30
2018-01-28T19:37:31.468Z,10.10
2018-01-28T19:40:03.178Z,10.13
2018-01-28T19:42:33.121Z,9.73
2018-01-28T19:45:03.901Z,10.37
2018-01-28T19:47:33.886Z,11.20
2018-01-28T19:50:05.087Z,9.70
2018-01-28T19:52:35.097Z,9.53
2018-01-28T19:55:05.627Z,8.23
2018-01-28T19:57:35.536Z,8.20
2018-01-28T20:00:06.291Z,8.43
2018-01-28T20:02:36.668Z,8.93
2018-01-28T20:05:06.606Z,7.37
2018-01-28T20:07:37.625Z,8.27
2018-01-28T20:10:07.659Z,8.60
2018-01-28T20:12:38.214Z,8.13
2018-01-28T20:15:08.305Z,6.70
2018-01-28T20:17:39.559Z,7.43
2018-01-28T20:20:10.674Z,7.60
2018-01-28T20:22:41.127Z,7.87
2018-01-28T20:25:12.371Z,7.67
2018-01-28T20:27:42.781Z,8.27
2018-01-28T20:30:13.660Z,7.87
2018-01-28T20:32:44.236Z,6.70
2018-01-28T20:35:14.953Z,6.83
2018-01-28T20:37:45.331Z,6.83
2018-01-28T20:40:16.628Z,7.90
2018-01-28T20:42:46.861Z,8.97
2018-01-28T20:45:16.882Z,7.90
2018-01-28T20:47:46.914Z,7.80
2018-01-28T20:50:17.070Z,7.33
2018-01-28T20:52:48.164Z,7.97
2018-01-28T20:55:18.423Z,9.03
2018-01-28T20:57:49.430Z,8.00
2018-01-28T21:00:19.833Z,7.80
2018-01-28T21:02:52.633Z,8.20
2018-01-28T21:05:23.104Z,8.67
2018-01-28T21:07:53.831Z,8.03
2018-01-28T21:10:24.286Z,7.97
2018-01-28T21:12:54.659Z,7.00
2018-01-28T21:15:25.455Z,7.97
2018-01-28T21:17:55.837Z,6.60
2018-01-28T21:20:26.673Z,6.53
2018-01-28T21:22:56.936Z,6.20
2018-01-28T21:25:28.119Z,6.83
2018-01-28T21:27:58.677Z,6.20
2018-01-28T21:30:29.189Z,6.83
2018-01-28T21:32:59.415Z,7.60
2018-01-28T21:35:29.681Z,6.87
2018-01-28T21:38:00.725Z,8.80
2018-01-28T21:40:31.918Z,6.67
2018-01-28T21:43:02.160Z,7.20
2018-01-28T21:45:32.319Z,6.70
2018-01-28T21:48:03.264Z,6.93
2018-01-28T21:50:34.044Z,7.07
2018-01-28T21:53:04.244Z,6.50
2018-01-28T21:55:34.581Z,6.60
2018-01-28T21:58:05.231Z,6.63
2018-01-28T22:00:35.593Z,7.10
2018-01-28T22:03:06.088Z,6.20
2018-01-28T22:05:36.308Z,7.33
2018-01-28T22:08:06.731Z,6.77
2018-01-28T22:10:36.973Z,6.60
2018-01-28T22:13:07.586Z,7.27
2018-01-28T22:15:38.543Z,7.07
2018-01-28T22:18:08.889Z,7.33
2018-01-28T22:20:39.479Z,7.43
2018-01-28T22:23:09.673Z,7.50
2018-01-28T22:25:39.910Z,6.60
2018-01-28T22:28:11.199Z,8.60
2018-01-28T22:30:41.375Z,9.83
2018-01-28T22:33:11.420Z,6.60
2018-01-28T22:35:41.412Z,6.40
2018-01-28T22:38:11.882Z,6.83
2018-01-28T22:40:42.514Z,6.07
2018-01-28T22:43:13.429Z,6.73
2018-01-28T22:45:43.871Z,7.17
2018-01-28T22:48:14.093Z,7.03
2018-01-28T22:50:44.734Z,10.10
2018-01-28T22:53:15.111Z,8.30
2018-01-28T22:55:45.633Z,8.03
2018-01-28T22:58:16.558Z,5.50
2018-01-28T23:00:47.611Z,8.10
2018-01-28T23:03:18.813Z,7.60
2018-01-28T23:05:49.279Z,6.53
2018-01-28T23:08:20.714Z,7.13
2018-01-28T23:10:51.905Z,5.63
2018-01-28T23:13:22.585Z,5.63
2018-01-28T23:15:53.687Z,6.07
2018-01-28T23:18:24.484Z,5.00
2018-01-28T23:20:54.706Z,5.27
2018-01-28T23:23:25.741Z,4.53
2018-01-28T23:25:56.097Z,4.53
2018-01-28T23:28:26.688Z,4.90
2018-01-28T23:30:57.175Z,5.77
2018-01-28T23:33:27.904Z,3.97
2018-01-28T23:35:58.323Z,6.17
2018-01-28T23:38:28.656Z,4.87
2018-01-28T23:40:59.081Z,4.20
2018-01-28T23:43:29.354Z,5.70
2018-01-28T23:45:59.746Z,5.50
2018-01-28T23:48:30.067Z,4.67
2018-01-28T23:51:00.287Z,6.30
2018-01-28T23:53:30.751Z,6.20
2018-01-28T23:56:00.835Z,4.80
2018-01-28T23:58:31.054Z,6.37
